createdAt,value
2018-07-02T00:01:07.026Z,55.58
2018-07-02T00:03:34.527Z,55.70
2018-07-02T00:09:03.896Z,55.62
2018-07-02T00:11:32.146Z,55.15
2018-07-02T00:13:59.644Z,55.45
2018-07-02T00:16:27.102Z,55.70
2018-07-02T00:18:54.614Z,55.09
2018-07-02T00:21:22.106Z,54.86
2018-07-02T00:23:49.696Z,54.30
2018-07-02T00:26:17.172Z,54.08
2018-07-02T00:28:44.689Z,54.63
2018-07-02T00:31:12.576Z,54.01
2018-07-02T00:33:40.001Z,53.90
2018-07-02T00:36:08.441Z,53.35
2018-07-02T00:38:36.881Z,53.14
2018-07-02T00:41:04.372Z,52.86
2018-07-02T00:43:31.870Z,52.62
2018-07-02T00:45:59.396Z,52.52
2018-07-02T00:48:26.890Z,53.06
2018-07-02T00:50:54.367Z,52.93
2018-07-02T00:53:21.981Z,53.02
2018-07-02T00:55:49.491Z,52.98
2018-07-02T00:58:17.035Z,52.95
2018-07-02T01:00:44.484Z,52.79
2018-07-02T01:03:11.928Z,53.09
2018-07-02T01:05:39.381Z,53.00
2018-07-02T01:08:06.817Z,53.56
2018-07-02T01:10:34.430Z,53.00
2018-07-02T01:13:01.934Z,53.20
2018-07-02T01:15:29.455Z,53.02
2018-07-02T01:17:56.934Z,53.35
2018-07-02T01:20:24.366Z,52.84
2018-07-02T01:22:51.769Z,52.63
2018-07-02T01:25:19.240Z,52.35
2018-07-02T01:27:46.723Z,52.30
2018-07-02T01:30:14.183Z,52.25
2018-07-02T01:32:41.691Z,52.82
2018-07-02T01:35:09.222Z,52.48
2018-07-02T01:37:36.685Z,52.58
2018-07-02T01:40:04.148Z,52.18
2018-07-02T01:42:31.645Z,51.64
2018-07-02T01:44:59.134Z,51.11
2018-07-02T01:47:26.617Z,51.09
2018-07-02T01:49:54.092Z,51.37
2018-07-02T01:52:21.551Z,51.38
2018-07-02T01:54:49.065Z,51.19
2018-07-02T01:57:16.508Z,51.01
2018-07-02T01:59:43.960Z,50.81
2018-07-02T02:02:11.467Z,50.81
2018-07-02T02:04:38.910Z,50.54
2018-07-02T02:07:06.392Z,50.44
2018-07-02T02:09:33.829Z,50.35
2018-07-02T02:12:01.276Z,50.31
2018-07-02T02:14:28.738Z,50.25
2018-07-02T02:16:56.275Z,50.03
2018-07-02T02:19:23.729Z,50.27
2018-07-02T02:21:51.200Z,50.98
2018-07-02T02:24:18.688Z,51.08
2018-07-02T02:26:46.964Z,51.41
2018-07-02T02:29:14.452Z,51.83
2018-07-02T02:31:41.931Z,51.23
2018-07-02T02:34:09.396Z,50.91
2018-07-02T02:36:36.858Z,50.92
2018-07-02T02:39:04.355Z,51.56
2018-07-02T02:41:31.871Z,52.89
2018-07-02T02:43:59.464Z,52.84
2018-07-02T02:46:26.913Z,52.65
2018-07-02T02:48:54.393Z,51.84
2018-07-02T02:51:21.924Z,52.36
2018-07-02T02:53:49.368Z,52.41
2018-07-02T02:56:16.798Z,53.49
2018-07-02T02:58:44.296Z,53.95
2018-07-02T03:01:11.881Z,53.59
2018-07-02T03:03:39.368Z,52.46
2018-07-02T03:06:06.795Z,52.34
2018-07-02T03:08:34.234Z,52.79
2018-07-02T03:11:01.689Z,54.35
2018-07-02T03:13:29.191Z,55.27
2018-07-02T03:15:56.696Z,56.16
2018-07-02T03:18:29.596Z,56.60
2018-07-02T03:20:57.045Z,55.73
2018-07-02T03:23:24.511Z,55.21
2018-07-02T03:25:52.035Z,55.03
2018-07-02T03:28:19.496Z,55.46
2018-07-02T03:30:47.075Z,55.81
2018-07-02T03:33:14.575Z,57.39
2018-07-02T03:35:42.093Z,57.71
2018-07-02T03:38:09.596Z,56.34
2018-07-02T03:40:37.106Z,56.86
2018-07-02T03:43:04.558Z,57.15
2018-07-02T03:45:32.036Z,57.33
2018-07-02T03:47:59.528Z,57.90
2018-07-02T03:50:27.030Z,57.91
2018-07-02T03:52:54.633Z,58.05
2018-07-02T03:55:22.153Z,58.60
2018-07-02T03:57:49.671Z,58.74
2018-07-02T04:00:17.166Z,55.91
2018-07-02T04:02:44.599Z,56.29
2018-07-02T04:05:12.243Z,56.95
2018-07-02T04:07:39.779Z,57.99
2018-07-02T04:10:07.306Z,58.01
2018-07-02T04:12:34.832Z,58.48
2018-07-02T04:15:02.325Z,58.21
2018-07-02T04:17:29.839Z,57.36
2018-07-02T04:19:57.441Z,57.39
2018-07-02T04:22:24.931Z,58.67
2018-07-02T04:24:52.450Z,59.20
2018-07-02T04:27:19.983Z,59.34
2018-07-02T04:29:47.664Z,59.06
2018-07-02T04:32:15.134Z,59.37
2018-07-02T04:34:42.672Z,60.09
2018-07-02T04:37:10.205Z,60.19
2018-07-02T04:39:37.651Z,60.08
2018-07-02T04:42:05.204Z,59.96
2018-07-02T04:44:32.690Z,59.96
2018-07-02T04:47:00.207Z,60.04
2018-07-02T04:49:27.685Z,59.57
2018-07-02T04:51:55.207Z,58.49
2018-07-02T04:54:22.827Z,57.54
2018-07-02T04:56:50.389Z,56.49
2018-07-02T04:59:18.022Z,54.37
2018-07-02T05:01:45.496Z,53.76
2018-07-02T05:04:13.164Z,54.39
2018-07-02T05:06:40.670Z,54.18
2018-07-02T05:09:08.142Z,53.28
2018-07-02T05:11:35.699Z,53.16
2018-07-02T05:14:03.444Z,52.57
2018-07-02T05:16:30.896Z,51.38
2018-07-02T05:18:58.746Z,50.88
2018-07-02T05:21:26.208Z,50.13
2018-07-02T05:23:53.765Z,49.51
2018-07-02T05:26:21.404Z,49.05
2018-07-02T05:28:48.847Z,48.99
2018-07-02T05:31:16.378Z,48.78
2018-07-02T05:33:43.840Z,49.01
2018-07-02T05:36:11.337Z,48.84
2018-07-02T05:38:38.814Z,48.96
2018-07-02T05:41:06.301Z,49.18
2018-07-02T05:43:33.791Z,48.99
2018-07-02T05:46:01.357Z,49.03
2018-07-02T05:48:28.850Z,49.35
2018-07-02T05:50:56.359Z,49.76
2018-07-02T05:53:23.837Z,49.36
2018-07-02T05:55:51.282Z,49.02
2018-07-02T05:58:18.821Z,48.94
2018-07-02T06:00:46.400Z,48.70
2018-07-02T06:03:13.867Z,49.02
2018-07-02T06:05:41.456Z,48.05
2018-07-02T06:08:09.139Z,47.66
2018-07-02T06:10:36.706Z,47.31
2018-07-02T06:13:04.381Z,46.79
2018-07-02T06:15:32.336Z,46.34
2018-07-02T06:17:59.780Z,46.29
2018-07-02T06:20:27.746Z,46.03
2018-07-02T06:22:55.280Z,46.16
2018-07-02T06:25:22.766Z,45.87
2018-07-02T06:27:50.336Z,45.39
2018-07-02T06:30:17.816Z,45.34
2018-07-02T06:32:45.442Z,45.30
2018-07-02T06:35:12.922Z,45.05
2018-07-02T06:37:40.416Z,44.80
2018-07-02T06:40:08.056Z,44.45
2018-07-02T06:42:35.523Z,44.39
2018-07-02T06:45:02.953Z,43.97
2018-07-02T06:47:30.527Z,44.51
2018-07-02T06:49:58.007Z,43.50
2018-07-02T06:54:59.362Z,42.54
2018-07-02T06:57:26.866Z,42.18
2018-07-02T06:59:54.372Z,42.06
2018-07-02T07:02:21.904Z,42.99
2018-07-02T07:04:49.375Z,43.05
2018-07-02T07:07:16.819Z,42.44
2018-07-02T07:09:44.501Z,41.79
2018-07-02T07:12:11.983Z,41.46
2018-07-02T07:14:39.499Z,40.95
2018-07-02T07:17:06.948Z,41.16
2018-07-02T07:19:34.386Z,41.46
2018-07-02T07:22:02.021Z,41.25
2018-07-02T07:24:30.034Z,40.87
2018-07-02T07:26:57.621Z,40.04
2018-07-02T07:29:26.091Z,39.54
2018-07-02T07:31:53.550Z,38.27
2018-07-02T07:34:21.050Z,38.08
2018-07-02T07:36:48.501Z,38.76
2018-07-02T07:39:16.032Z,37.75
2018-07-02T07:41:43.485Z,36.72
2018-07-02T07:44:10.976Z,36.05
2018-07-02T07:46:38.410Z,35.60
2018-07-02T07:49:05.887Z,35.32
2018-07-02T07:51:33.720Z,35.67
2018-07-02T07:54:01.195Z,36.31
2018-07-02T07:56:28.692Z,35.91
2018-07-02T07:58:56.248Z,35.18
2018-07-02T08:01:23.767Z,34.55
2018-07-02T08:03:51.261Z,35.03
2018-07-02T08:06:18.768Z,35.47
2018-07-02T08:08:46.252Z,34.83
2018-07-02T08:11:13.824Z,34.14
2018-07-02T08:13:41.253Z,34.12
2018-07-02T08:16:08.743Z,34.52
2018-07-02T08:18:36.199Z,34.53
2018-07-02T08:21:03.683Z,34.19
2018-07-02T08:23:31.188Z,33.96
2018-07-02T08:25:59.018Z,33.72
2018-07-02T08:28:26.527Z,33.95
2018-07-02T08:30:54.013Z,34.59
2018-07-02T08:33:21.497Z,34.26
2018-07-02T08:35:48.919Z,33.74
2018-07-02T08:38:16.403Z,33.83
2018-07-02T08:40:43.844Z,33.40
2018-07-02T08:43:11.463Z,33.09
2018-07-02T08:45:38.934Z,33.45
2018-07-02T08:48:06.384Z,33.59
2018-07-02T08:50:33.841Z,33.58
2018-07-02T08:53:01.508Z,33.27
2018-07-02T08:55:29.020Z,33.19
2018-07-02T08:57:56.484Z,33.27
2018-07-02T09:00:24.109Z,34.12
2018-07-02T09:02:51.953Z,34.38
2018-07-02T09:05:19.447Z,33.91
2018-07-02T09:07:46.896Z,34.17
2018-07-02T09:10:14.493Z,33.75
2018-07-02T09:12:42.002Z,33.60
2018-07-02T09:15:09.451Z,33.48
2018-07-02T09:17:37.030Z,33.51
2018-07-02T09:20:04.569Z,33.01
2018-07-02T09:22:32.064Z,32.51
2018-07-02T09:24:59.797Z,32.44
2018-07-02T09:27:27.437Z,33.05
2018-07-02T09:29:54.951Z,33.35
2018-07-02T09:32:22.525Z,33.34
2018-07-02T09:34:50.212Z,32.92
2018-07-02T09:37:17.459Z,32.69
2018-07-02T09:39:44.987Z,32.95
2018-07-02T09:42:12.489Z,33.41
2018-07-02T09:44:39.977Z,33.30
2018-07-02T09:47:07.521Z,33.41
2018-07-02T09:49:34.958Z,32.61
2018-07-02T09:52:02.488Z,32.96
2018-07-02T09:54:29.976Z,32.09
2018-07-02T09:56:57.501Z,32.20
2018-07-02T09:59:24.947Z,32.50
2018-07-02T10:01:53.017Z,32.42
2018-07-02T10:04:20.495Z,31.22
2018-07-02T10:06:48.035Z,31.10
2018-07-02T10:09:15.731Z,30.06
2018-07-02T10:11:43.458Z,29.22
2018-07-02T10:14:10.888Z,28.00
2018-07-02T10:16:38.413Z,28.57
2018-07-02T10:19:05.978Z,28.35
2018-07-02T10:21:33.438Z,27.99
2018-07-02T10:24:00.934Z,27.59
2018-07-02T10:26:28.428Z,27.75
2018-07-02T10:28:55.858Z,27.98
2018-07-02T10:31:23.516Z,27.95
2018-07-02T10:33:50.854Z,26.66
2018-07-02T10:36:18.401Z,26.11
2018-07-02T10:38:46.220Z,25.45
2018-07-02T10:41:13.883Z,25.34
2018-07-02T10:43:41.442Z,25.42
2018-07-02T10:46:09.392Z,25.24
2018-07-02T10:48:37.047Z,24.56
2018-07-02T10:51:04.595Z,24.48
2018-07-02T10:53:32.095Z,24.52
2018-07-02T10:56:00.107Z,24.59
2018-07-02T10:58:27.658Z,24.23
2018-07-02T11:00:55.109Z,24.85
2018-07-02T11:03:22.596Z,24.55
2018-07-02T11:05:50.159Z,24.24
2018-07-02T11:08:17.825Z,24.75
2018-07-02T11:10:45.452Z,24.68
2018-07-02T11:13:13.079Z,24.73
2018-07-02T11:15:40.593Z,24.28
2018-07-02T11:18:08.200Z,24.38
2018-07-02T11:20:35.680Z,23.93
2018-07-02T11:23:03.222Z,24.15
2018-07-02T11:25:30.655Z,23.95
2018-07-02T11:27:58.146Z,23.92
2018-07-02T11:30:25.649Z,23.70
2018-07-02T11:32:53.049Z,23.92
2018-07-02T11:35:21.477Z,24.10
2018-07-02T11:37:49.016Z,24.02
2018-07-02T11:40:16.489Z,23.82
2018-07-02T11:42:43.946Z,24.24
2018-07-02T11:45:11.384Z,24.07
2018-07-02T11:47:38.891Z,23.93
2018-07-02T11:50:06.397Z,24.01
2018-07-02T11:52:33.900Z,24.02
2018-07-02T11:55:01.358Z,23.69
2018-07-02T11:57:29.043Z,23.63
2018-07-02T11:59:56.469Z,23.34
2018-07-02T12:02:24.017Z,23.53
2018-07-02T12:04:52.818Z,23.76
2018-07-02T12:07:20.277Z,23.00
2018-07-02T12:09:47.825Z,23.33
2018-07-02T12:12:15.347Z,23.86
2018-07-02T12:14:43.484Z,24.39
2018-07-02T12:17:10.969Z,24.14
2018-07-02T12:19:38.453Z,23.19
2018-07-02T12:22:05.953Z,23.34
2018-07-02T12:24:33.377Z,22.83
2018-07-02T12:27:01.020Z,23.62
2018-07-02T12:29:28.479Z,23.38
2018-07-02T12:31:56.048Z,22.55
2018-07-02T12:34:23.515Z,22.72
2018-07-02T12:36:51.030Z,22.50
2018-07-02T12:39:18.501Z,22.29
2018-07-02T12:41:46.842Z,22.27
2018-07-02T12:44:14.338Z,22.94
2018-07-02T12:46:41.860Z,23.08
2018-07-02T12:49:09.230Z,23.68
2018-07-02T12:51:36.707Z,24.02
2018-07-02T12:54:04.287Z,23.93
2018-07-02T12:56:31.750Z,23.71
2018-07-02T12:58:59.685Z,23.44
2018-07-02T13:01:27.331Z,23.30
2018-07-02T13:03:55.167Z,23.27
2018-07-02T13:06:22.763Z,23.00
2018-07-02T13:08:50.247Z,23.49
2018-07-02T13:11:17.740Z,23.22
2018-07-02T13:13:45.192Z,23.26
2018-07-02T13:16:12.820Z,23.94
2018-07-02T13:18:40.244Z,24.08
2018-07-02T13:21:07.747Z,24.02
2018-07-02T13:23:35.310Z,23.63
2018-07-02T13:26:03.592Z,23.85
2018-07-02T13:28:31.127Z,24.24
2018-07-02T13:30:58.763Z,24.03
2018-07-02T13:33:26.267Z,24.18
2018-07-02T13:35:53.735Z,23.83
2018-07-02T13:38:21.190Z,23.75
2018-07-02T13:40:48.735Z,24.09
2018-07-02T13:43:16.213Z,24.30
2018-07-02T13:45:43.734Z,24.33
2018-07-02T13:48:11.383Z,24.59
2018-07-02T13:50:39.145Z,24.35
2018-07-02T13:53:06.612Z,23.70
2018-07-02T13:55:34.251Z,23.79
2018-07-02T13:58:01.712Z,23.86
2018-07-02T14:00:29.311Z,23.71
2018-07-02T14:02:56.748Z,23.51
2018-07-02T14:05:24.312Z,23.48
2018-07-02T14:07:51.830Z,23.55
2018-07-02T14:10:19.255Z,23.77
2018-07-02T14:12:47.268Z,24.11
2018-07-02T14:15:15.754Z,23.73
2018-07-02T14:17:43.278Z,23.64
2018-07-02T14:20:10.822Z,23.94
2018-07-02T14:22:38.268Z,24.44
2018-07-02T14:25:05.738Z,23.80
2018-07-02T14:27:33.299Z,24.17
2018-07-02T14:30:00.813Z,24.01
2018-07-02T14:32:28.339Z,23.96
2018-07-02T14:34:55.876Z,24.43
2018-07-02T14:37:23.332Z,24.36
2018-07-02T14:39:50.788Z,24.59
2018-07-02T14:42:18.325Z,24.09
2018-07-02T14:44:45.908Z,24.11
2018-07-02T14:47:13.438Z,24.40
2018-07-02T14:49:40.920Z,24.40
2018-07-02T14:52:08.444Z,24.31
2018-07-02T14:54:35.923Z,24.23
2018-07-02T14:57:03.380Z,24.22
2018-07-02T14:59:31.515Z,24.36
2018-07-02T15:01:59.159Z,24.49
2018-07-02T15:04:26.601Z,24.65
2018-07-02T15:06:54.126Z,24.78
2018-07-02T15:09:21.625Z,24.55
2018-07-02T15:11:49.200Z,24.51
2018-07-02T15:14:16.845Z,24.47
2018-07-02T15:16:44.263Z,24.33
2018-07-02T15:19:11.788Z,24.48
2018-07-02T15:21:39.255Z,24.27
2018-07-02T15:24:06.767Z,24.38
2018-07-02T15:26:34.269Z,24.78
2018-07-02T15:29:01.777Z,25.31
2018-07-02T15:31:29.372Z,25.16
2018-07-02T15:33:56.877Z,25.53
2018-07-02T15:36:24.750Z,25.36
2018-07-02T15:38:52.388Z,25.70
2018-07-02T15:41:19.967Z,26.21
2018-07-02T15:43:47.556Z,25.90
2018-07-02T15:46:15.078Z,26.03
2018-07-02T15:48:42.594Z,26.13
2018-07-02T15:51:10.091Z,26.24
2018-07-02T15:53:37.582Z,26.11
2018-07-02T15:56:05.035Z,26.20
2018-07-02T15:58:32.509Z,26.23
2018-07-02T16:00:59.963Z,26.58
2018-07-02T16:03:27.513Z,26.83
2018-07-02T16:05:55.075Z,26.80
2018-07-02T16:08:22.647Z,26.79
2018-07-02T16:10:50.091Z,26.78
2018-07-02T16:13:17.574Z,26.87
2018-07-02T16:15:45.043Z,27.23
2018-07-02T16:18:12.486Z,27.35
2018-07-02T16:20:40.045Z,27.49
2018-07-02T16:23:07.589Z,27.71
2018-07-02T16:25:35.103Z,27.96
2018-07-02T16:28:02.818Z,27.80
2018-07-02T16:30:30.292Z,27.82
2018-07-02T16:32:57.879Z,27.61
2018-07-02T16:35:25.381Z,27.76
2018-07-02T16:37:53.098Z,27.95
2018-07-02T16:40:20.681Z,28.03
2018-07-02T16:42:48.248Z,28.05
2018-07-02T16:45:15.661Z,28.10
2018-07-02T16:47:43.094Z,28.06
2018-07-02T16:50:10.542Z,28.13
2018-07-02T16:52:38.021Z,28.37
2018-07-02T16:55:05.577Z,28.52
2018-07-02T16:57:33.012Z,28.76
2018-07-02T17:00:00.615Z,28.81
2018-07-02T17:02:28.077Z,28.91
2018-07-02T17:04:55.804Z,28.86
2018-07-02T17:07:23.317Z,28.60
2018-07-02T17:09:50.860Z,28.77
2018-07-02T17:12:18.442Z,29.13
2018-07-02T17:14:46.007Z,29.58
2018-07-02T17:17:13.535Z,29.64
2018-07-02T17:19:41.096Z,29.96
2018-07-02T17:22:08.729Z,30.16
2018-07-02T17:24:36.159Z,30.24
2018-07-02T17:27:03.579Z,30.03
2018-07-02T17:29:31.058Z,30.11
2018-07-02T17:31:58.544Z,30.02
2018-07-02T17:34:26.313Z,29.96
2018-07-02T17:36:53.761Z,30.14
2018-07-02T17:39:21.185Z,30.21
2018-07-02T17:41:48.733Z,30.11
2018-07-02T17:44:16.166Z,30.09
2018-07-02T17:46:43.847Z,30.26
2018-07-02T17:49:11.427Z,30.25
2018-07-02T17:51:38.921Z,30.43
2018-07-02T17:54:06.413Z,30.39
2018-07-02T17:56:34.010Z,30.25
2018-07-02T17:59:01.539Z,30.26
2018-07-02T18:01:28.997Z,30.27
2018-07-02T18:03:56.541Z,30.36
2018-07-02T18:06:24.076Z,30.58
2018-07-02T18:08:51.522Z,30.35
2018-07-02T18:11:19.060Z,30.62
2018-07-02T18:13:46.635Z,30.53
2018-07-02T18:16:14.104Z,30.52
2018-07-02T18:18:41.543Z,30.54
2018-07-02T18:21:09.048Z,30.74
2018-07-02T18:23:36.509Z,30.78
2018-07-02T18:26:03.907Z,31.13
2018-07-02T18:28:31.327Z,31.42
2018-07-02T18:30:58.860Z,31.78
2018-07-02T18:33:26.318Z,32.06
2018-07-02T18:35:53.772Z,32.39
2018-07-02T18:38:21.201Z,32.67
2018-07-02T18:40:48.765Z,32.79
2018-07-02T18:43:17.181Z,32.77
2018-07-02T18:45:44.610Z,33.09
2018-07-02T18:48:12.069Z,32.88
2018-07-02T18:50:39.534Z,33.26
2018-07-02T18:53:07.094Z,33.48
2018-07-02T18:55:34.670Z,33.63
2018-07-02T18:58:02.146Z,33.50
2018-07-02T19:00:29.628Z,33.57
2018-07-02T19:02:57.393Z,33.86
2018-07-02T19:05:24.919Z,33.96
2018-07-02T19:07:52.731Z,34.09
2018-07-02T19:10:20.732Z,34.28
2018-07-02T19:12:49.670Z,34.39
2018-07-02T19:15:17.241Z,35.23
2018-07-02T19:17:44.765Z,35.34
2018-07-02T19:20:13.079Z,35.15
2018-07-02T19:22:40.634Z,35.60
2018-07-02T19:25:08.154Z,36.09
2018-07-02T19:27:35.596Z,36.11
2018-07-02T19:30:03.296Z,36.17
2018-07-02T19:32:30.902Z,36.29
2018-07-02T19:34:58.715Z,36.41
2018-07-02T19:37:26.192Z,36.38
2018-07-02T19:39:53.663Z,36.50
2018-07-02T19:42:21.921Z,36.48
2018-07-02T19:44:50.010Z,37.23
2018-07-02T19:47:17.467Z,37.06
2018-07-02T19:49:44.932Z,37.05
2018-07-02T19:52:12.563Z,37.21
2018-07-02T19:54:40.176Z,37.70
2018-07-02T19:57:07.701Z,38.00
2018-07-02T19:59:35.212Z,38.43
2018-07-02T20:02:02.711Z,38.59
2018-07-02T20:04:30.246Z,38.96
2018-07-02T20:06:57.822Z,39.16
2018-07-02T20:09:25.275Z,39.23
2018-07-02T20:11:52.743Z,39.20
2018-07-02T20:14:20.179Z,39.04
2018-07-02T20:16:47.705Z,39.16
2018-07-02T20:19:15.755Z,39.25
2018-07-02T20:21:43.154Z,39.64
2018-07-02T20:24:10.643Z,39.77
2018-07-02T20:26:38.114Z,40.10
2018-07-02T20:29:05.558Z,40.78
2018-07-02T20:31:33.026Z,40.63
2018-07-02T20:34:00.464Z,40.68
2018-07-02T20:36:27.957Z,40.56
2018-07-02T20:38:55.446Z,40.73
2018-07-02T20:41:22.933Z,40.64
2018-07-02T20:43:50.461Z,40.78
2018-07-02T20:46:18.196Z,40.86
2018-07-02T20:48:45.604Z,41.00
2018-07-02T20:51:13.134Z,41.37
2018-07-02T20:53:40.594Z,42.09
2018-07-02T20:56:08.081Z,41.94
2018-07-02T20:58:35.623Z,41.89
2018-07-02T21:01:03.090Z,41.88
2018-07-02T21:03:30.554Z,42.54
2018-07-02T21:05:57.983Z,42.42
2018-07-02T21:08:25.503Z,42.68
2018-07-02T21:10:52.955Z,42.45
2018-07-02T21:13:20.454Z,42.51
2018-07-02T21:15:47.897Z,42.40
2018-07-02T21:18:15.272Z,42.32
2018-07-02T21:20:42.693Z,42.37
2018-07-02T21:23:10.140Z,42.32
2018-07-02T21:25:37.571Z,42.72
2018-07-02T21:28:04.984Z,42.63
2018-07-02T21:30:32.442Z,42.91
2018-07-02T21:32:59.894Z,42.87
2018-07-02T21:35:27.346Z,42.95
2018-07-02T21:37:54.787Z,43.61
2018-07-02T21:40:22.215Z,43.08
2018-07-02T21:42:49.632Z,43.35
2018-07-02T21:45:17.121Z,43.60
2018-07-02T21:47:44.589Z,43.73
2018-07-02T21:50:12.132Z,43.51
2018-07-02T21:52:39.611Z,43.38
2018-07-02T21:55:07.077Z,43.19
2018-07-02T21:57:34.537Z,43.31
2018-07-02T22:00:01.943Z,43.24
2018-07-02T22:02:29.579Z,43.53
2018-07-02T22:04:56.994Z,43.49
2018-07-02T22:07:25.063Z,43.71
2018-07-02T22:09:52.508Z,43.35
2018-07-02T22:12:19.972Z,44.06
2018-07-02T22:14:47.425Z,44.11
2018-07-02T22:17:14.837Z,43.73
2018-07-02T22:19:42.294Z,43.80
2018-07-02T22:22:09.754Z,44.09
2018-07-02T22:24:37.219Z,44.07
2018-07-02T22:27:04.786Z,44.08
2018-07-02T22:29:32.235Z,44.14
2018-07-02T22:31:59.854Z,45.16
2018-07-02T22:34:27.297Z,46.08
2018-07-02T22:36:54.779Z,46.40
2018-07-02T22:39:22.203Z,46.48
2018-07-02T22:41:49.702Z,46.36
2018-07-02T22:44:17.103Z,46.17
2018-07-02T22:46:44.589Z,46.44
2018-07-02T22:49:12.116Z,46.50
2018-07-02T22:51:39.580Z,46.70
2018-07-02T22:54:07.169Z,46.45
2018-07-02T22:56:34.618Z,46.70
2018-07-02T22:59:02.322Z,46.93
2018-07-02T23:01:29.755Z,47.26
2018-07-02T23:03:57.241Z,47.67
2018-07-02T23:06:24.783Z,47.50
2018-07-02T23:08:52.227Z,47.43
2018-07-02T23:11:19.685Z,47.22
2018-07-02T23:13:47.132Z,46.99
2018-07-02T23:16:14.614Z,47.12
2018-07-02T23:18:42.229Z,47.30
2018-07-02T23:21:09.689Z,47.79
2018-07-02T23:23:37.179Z,48.75
2018-07-02T23:26:04.655Z,49.19
2018-07-02T23:28:32.120Z,49.46
2018-07-02T23:30:59.965Z,49.63
2018-07-02T23:33:27.447Z,49.92
2018-07-02T23:35:54.871Z,50.43
2018-07-02T23:38:22.363Z,50.79
2018-07-02T23:40:49.930Z,50.92
2018-07-02T23:43:17.388Z,50.84
2018-07-02T23:45:44.912Z,51.14
2018-07-02T23:48:12.458Z,51.14
2018-07-02T23:50:39.908Z,51.15
2018-07-02T23:53:07.378Z,50.77
2018-07-02T23:55:34.816Z,50.48
2018-07-02T23:58:02.248Z,50.22
